Time;durP1;ratioP1;P1;durP2;ratioP2;P2;SDS_P1;SDS_P2;PMS_P1;PMS_P2;Temp;Humidity;BMP_temperature;BMP_pressure;BME280_temperature;BME280_humidity;BME280_pressure;Samples;Min_cycle;Max_cycle;Signal;HPM_P1;HPM_P2
2022/12/01 00:00:59;;;;;;;13.65;7.60;;;3.60;99.90;;;;;;5066219;28;20204;-71
2022/12/01 00:03:26;;;;;;;14.27;7.63;;;3.50;99.90;;;;;;5066851;28;20228;-69
2022/12/01 00:06:00;;;;;;;11.43;7.65;;;3.50;99.90;;;;;;5066622;28;20225;-71
2022/12/01 00:08:27;;;;;;;13.98;7.53;;;3.50;99.90;;;;;;5066488;28;20221;-70
2022/12/01 00:10:53;;;;;;;12.88;7.30;;;3.50;99.90;;;;;;5065936;28;20926;-71
2022/12/01 00:13:20;;;;;;;13.38;7.40;;;3.50;99.90;;;;;;5066746;28;20318;-70
2022/12/01 00:15:47;;;;;;;13.80;7.70;;;3.40;99.90;;;;;;5066325;28;20236;-69
2022/12/01 00:18:15;;;;;;;12.38;8.20;;;3.40;99.90;;;;;;5065915;28;20288;-70
2022/12/01 00:20:41;;;;;;;17.20;8.32;;;3.40;99.90;;;;;;5052117;28;20202;-70
2022/12/01 00:23:08;;;;;;;17.58;9.02;;;3.40;99.90;;;;;;5053438;28;20205;-71
2022/12/01 00:25:35;;;;;;;12.52;7.93;;;3.40;99.90;;;;;;5052961;28;20226;-70
2022/12/01 00:28:02;;;;;;;13.75;8.13;;;3.40;99.90;;;;;;5053182;28;20230;-70
2022/12/01 00:30:28;;;;;;;19.83;8.95;;;3.40;99.90;;;;;;5052529;28;20229;-70
2022/12/01 00:32:55;;;;;;;14.75;8.88;;;3.40;99.90;;;;;;5053060;28;20895;-71
2022/12/01 00:35:23;;;;;;;12.63;7.90;;;3.30;99.90;;;;;;5053128;28;20226;-70
2022/12/01 00:37:50;;;;;;;14.50;7.85;;;3.30;99.90;;;;;;5052759;28;20293;-69
2022/12/01 00:40:17;;;;;;;18.17;9.43;;;3.30;99.90;;;;;;5052613;28;20201;-70
2022/12/01 00:42:43;;;;;;;15.65;8.80;;;3.30;99.90;;;;;;5052407;28;20197;-70
2022/12/01 00:45:11;;;;;;;16.92;8.30;;;3.30;99.90;;;;;;5052599;28;20708;-69
2022/12/01 00:47:38;;;;;;;17.00;8.75;;;3.30;99.90;;;;;;5052324;28;20214;-70
2022/12/01 00:50:05;;;;;;;12.18;7.05;;;3.40;99.90;;;;;;5052849;28;20205;-70
2022/12/01 00:52:33;;;;;;;14.52;8.88;;;3.40;99.90;;;;;;5052105;28;20198;-70
2022/12/01 00:55:00;;;;;;;15.55;8.68;;;3.30;99.90;;;;;;5052938;28;20225;-71
2022/12/01 00:57:27;;;;;;;17.27;8.63;;;3.30;99.90;;;;;;5052772;28;20201;-70
2022/12/01 00:59:54;;;;;;;12.57;6.85;;;3.30;99.90;;;;;;5052432;28;20217;-70
2022/12/01 01:02:20;;;;;;;13.55;7.72;;;3.30;99.90;;;;;;5051929;28;20206;-70
2022/12/01 01:04:47;;;;;;;18.58;8.73;;;3.30;99.90;;;;;;5050753;28;20226;-70
2022/12/01 01:07:14;;;;;;;16.00;8.27;;;3.30;99.90;;;;;;5052520;28;20214;-71
2022/12/01 01:09:42;;;;;;;15.18;9.48;;;3.30;99.90;;;;;;5052141;28;20198;-71
2022/12/01 01:12:09;;;;;;;13.93;7.70;;;3.40;99.90;;;;;;5052077;28;20216;-71
2022/12/01 01:14:36;;;;;;;17.05;8.77;;;3.40;99.90;;;;;;5052192;28;20221;-71
2022/12/01 01:17:02;;;;;;;14.65;7.80;;;3.40;99.90;;;;;;5052355;28;20198;-70
2022/12/01 01:19:29;;;;;;;17.52;8.30;;;3.40;99.90;;;;;;5052422;28;20218;-71
2022/12/01 01:21:56;;;;;;;14.75;7.15;;;3.30;99.90;;;;;;5051807;28;20228;-70
2022/12/01 01:24:22;;;;;;;11.27;7.22;;;3.40;99.90;;;;;;5052078;28;20198;-71
2022/12/01 01:26:50;;;;;;;16.45;8.60;;;3.40;99.90;;;;;;5051945;28;20224;-71
2022/12/01 01:29:17;;;;;;;15.85;8.75;;;3.40;99.90;;;;;;5052033;28;20230;-70
2022/12/01 01:31:44;;;;;;;14.20;7.95;;;3.40;99.90;;;;;;5050404;28;20220;-70
2022/12/01 01:34:11;;;;;;;15.30;8.57;;;3.40;99.90;;;;;;5051806;28;20209;-71
2022/12/01 01:36:37;;;;;;;13.30;8.23;;;3.40;99.90;;;;;;5051671;28;20201;-71
2022/12/01 01:39:04;;;;;;;13.05;7.53;;;3.40;99.90;;;;;;5052020;28;20202;-70
2022/12/01 01:41:31;;;;;;;16.02;7.68;;;3.30;99.90;;;;;;5050904;28;20208;-70
2022/12/01 01:44:01;;;;;;;13.00;8.40;;;3.30;99.90;;;;;;5051658;28;20209;-70
2022/12/01 01:46:30;;;;;;;15.25;8.75;;;3.30;99.90;;;;;;5051682;28;20225;-70
2022/12/01 01:48:59;;;;;;;13.82;7.65;;;3.30;99.90;;;;;;5051597;28;20226;-69
2022/12/01 01:51:30;;;;;;;18.13;8.38;;;3.30;99.90;;;;;;5050771;28;20202;-71
2022/12/01 01:54:03;;;;;;;17.65;8.23;;;3.30;99.90;;;;;;5051475;28;20202;-70
2022/12/01 01:56:31;;;;;;;15.25;8.63;;;3.30;99.90;;;;;;5051324;28;20609;-71
2022/12/01 01:58:59;;;;;;;13.18;7.35;;;3.20;99.90;;;;;;5051137;28;20209;-70
2022/12/01 02:01:26;;;;;;;17.00;8.57;;;3.20;99.90;;;;;;5050955;28;20213;-71
2022/12/01 02:03:54;;;;;;;11.90;7.13;;;3.10;99.90;;;;;;5051261;28;20214;-71
2022/12/01 02:06:23;;;;;;;11.85;7.10;;;3.20;99.90;;;;;;5051710;28;20225;-70
2022/12/01 02:08:50;;;;;;;13.35;8.07;;;3.20;99.90;;;;;;5051320;28;20226;-70
2022/12/01 02:11:50;;;;;;;12.27;7.82;;;3.10;99.90;;;;;;5050708;28;20197;-70
2022/12/01 02:14:52;;;;;;;12.27;7.43;;;3.10;99.90;;;;;;5051144;28;20699;-70
2022/12/01 02:17:30;;;;;;;12.82;7.85;;;3.20;99.90;;;;;;5048824;28;20208;-71
2022/12/01 02:20:50;;;;;;;15.10;8.32;;;3.10;99.90;;;;;;5051056;28;20205;-69
2022/12/01 02:23:42;;;;;;;16.40;8.45;;;3.10;99.90;;;;;;5026641;28;20209;-70
2022/12/01 02:26:25;;;;;;;12.40;7.78;;;3.10;99.90;;;;;;5051074;28;20245;-70
2022/12/01 02:29:18;;;;;;;13.52;8.02;;;3.00;99.90;;;;;;5050724;28;20779;-71
2022/12/01 02:31:53;;;;;;;15.82;8.13;;;3.00;99.90;;;;;;5111695;22;20201;-71
2022/12/01 02:34:27;;;;;;;14.77;8.43;;;3.00;99.90;;;;;;5030273;28;20198;-71
2022/12/01 02:36:59;;;;;;;15.45;7.95;;;3.00;99.90;;;;;;5030544;28;20256;-71
2022/12/01 02:39:33;;;;;;;11.90;7.80;;;3.00;99.90;;;;;;5030546;28;20302;-71
2022/12/01 02:42:05;;;;;;;15.63;7.80;;;3.00;99.90;;;;;;5029519;28;20567;-71
2022/12/01 02:44:36;;;;;;;16.70;8.88;;;3.00;99.90;;;;;;5030223;28;20222;-71
2022/12/01 02:47:11;;;;;;;12.25;8.32;;;3.00;99.90;;;;;;5030704;28;20210;-71
2022/12/01 02:49:42;;;;;;;15.05;7.18;;;3.00;99.90;;;;;;5030443;28;20233;-71
2022/12/01 02:52:11;;;;;;;14.98;7.63;;;3.00;99.90;;;;;;5030039;28;20207;-70
2022/12/01 02:54:39;;;;;;;13.60;7.68;;;2.90;99.90;;;;;;5030136;28;20252;-70
2022/12/01 02:57:06;;;;;;;14.48;7.45;;;3.00;99.90;;;;;;5030749;28;20210;-71
2022/12/01 02:59:32;;;;;;;12.35;7.63;;;3.10;99.90;;;;;;5030416;28;20203;-70
2022/12/01 03:02:09;;;;;;;16.67;10.35;;;3.00;99.90;;;;;;5030037;28;20225;-72
2022/12/01 03:04:45;;;;;;;14.15;7.40;;;3.10;99.90;;;;;;5030362;28;20229;-73
2022/12/01 03:07:26;;;;;;;10.85;6.80;;;3.10;99.90;;;;;;5031031;28;20206;-73
2022/12/01 03:10:03;;;;;;;16.83;10.40;;;3.10;99.90;;;;;;5030255;28;20736;-73
2022/12/01 03:12:39;;;;;;;17.65;8.68;;;3.10;99.90;;;;;;5029919;28;20202;-72
2022/12/01 03:15:11;;;;;;;15.00;7.40;;;3.00;99.90;;;;;;5030491;28;20229;-73
2022/12/01 03:17:46;;;;;;;18.92;9.10;;;3.00;99.90;;;;;;5030333;28;20198;-72
2022/12/01 03:20:18;;;;;;;14.32;8.20;;;2.90;99.90;;;;;;5030204;28;20224;-73
2022/12/01 03:22:50;;;;;;;15.23;8.82;;;2.90;99.90;;;;;;5030054;28;20202;-72
2022/12/01 03:25:18;;;;;;;12.93;7.97;;;2.90;99.90;;;;;;5030210;28;20218;-72
2022/12/01 03:27:48;;;;;;;13.73;7.75;;;2.90;99.90;;;;;;5030006;28;20209;-73
2022/12/01 03:30:17;;;;;;;17.92;9.23;;;2.90;99.90;;;;;;5029797;28;20684;-72
2022/12/01 03:32:48;;;;;;;14.65;8.73;;;3.00;99.90;;;;;;5029567;28;20214;-73
2022/12/01 03:35:19;;;;;;;14.70;8.40;;;3.00;99.90;;;;;;5030012;28;20226;-73
2022/12/01 03:37:50;;;;;;;11.80;7.70;;;2.90;99.90;;;;;;5030135;28;20214;-73
2022/12/01 03:40:21;;;;;;;18.27;8.40;;;2.80;99.90;;;;;;5030210;28;20206;-73
2022/12/01 03:42:53;;;;;;;14.02;7.75;;;2.70;99.90;;;;;;5030645;28;20242;-73
2022/12/01 03:45:26;;;;;;;20.25;9.02;;;2.70;99.90;;;;;;5029836;28;20219;-72
2022/12/01 03:47:54;;;;;;;15.27;7.63;;;2.80;99.90;;;;;;5029928;28;20216;-72
2022/12/01 03:50:24;;;;;;;14.88;7.22;;;2.80;99.90;;;;;;5029594;28;20609;-72
2022/12/01 03:53:05;;;;;;;14.18;7.03;;;2.80;99.90;;;;;;5029780;28;20206;-72
2022/12/01 03:55:37;;;;;;;14.32;7.55;;;2.80;99.90;;;;;;5033060;28;20248;-72
2022/12/01 03:58:09;;;;;;;13.57;8.60;;;2.80;99.90;;;;;;5033798;28;20280;-72
2022/12/01 04:00:36;;;;;;;15.45;8.60;;;2.80;99.90;;;;;;5033040;28;20209;-72
2022/12/01 04:03:05;;;;;;;12.98;8.00;;;2.80;99.90;;;;;;5033558;28;20202;-72
2022/12/01 04:05:33;;;;;;;16.25;6.35;;;2.70;99.90;;;;;;5033505;28;20226;-72
2022/12/01 04:08:01;;;;;;;14.38;8.85;;;2.70;99.90;;;;;;5033500;28;20205;-72
2022/12/01 04:10:27;;;;;;;13.80;7.65;;;2.70;99.90;;;;;;5032880;28;20212;-72
2022/12/01 04:12:58;;;;;;;11.98;7.45;;;2.80;99.90;;;;;;5033410;28;20225;-72
2022/12/01 04:15:26;;;;;;;14.00;7.13;;;2.80;99.90;;;;;;5033247;28;20226;-72
2022/12/01 04:17:52;;;;;;;16.48;9.32;;;2.80;99.90;;;;;;5033280;28;21425;-72
2022/12/01 04:20:21;;;;;;;12.80;7.70;;;2.80;99.90;;;;;;5032923;28;20588;-72
2022/12/01 04:22:48;;;;;;;15.13;8.60;;;2.80;99.90;;;;;;5033181;28;20209;-72
2022/12/01 04:25:15;;;;;;;13.90;8.30;;;2.70;99.90;;;;;;5033130;28;20736;-72
2022/12/01 04:27:41;;;;;;;12.68;7.60;;;2.70;99.90;;;;;;5032675;28;20206;-73
2022/12/01 04:30:09;;;;;;;13.80;6.97;;;2.80;99.90;;;;;;5032787;28;20584;-72
2022/12/01 04:32:39;;;;;;;13.95;7.63;;;2.80;99.90;;;;;;5032449;28;20221;-72
2022/12/01 04:35:06;;;;;;;14.88;7.70;;;2.70;99.90;;;;;;5032975;28;20222;-72
2022/12/01 04:37:34;;;;;;;15.23;8.60;;;2.70;99.90;;;;;;5031824;28;20199;-72
2022/12/01 04:40:01;;;;;;;15.70;8.02;;;2.70;99.90;;;;;;5032383;28;20194;-72
2022/12/01 04:42:28;;;;;;;11.32;7.22;;;2.70;99.90;;;;;;5032169;28;20229;-73
2022/12/01 04:44:55;;;;;;;14.07;8.07;;;2.70;99.90;;;;;;5032356;28;20222;-73
2022/12/01 04:47:21;;;;;;;15.77;8.25;;;2.70;99.90;;;;;;5029776;28;20205;-72
2022/12/01 04:49:48;;;;;;;13.20;7.22;;;2.70;99.90;;;;;;5031812;28;20241;-72
2022/12/01 04:52:15;;;;;;;13.65;8.15;;;2.70;99.90;;;;;;5031792;28;20202;-73
2022/12/01 04:54:43;;;;;;;13.13;7.43;;;2.70;99.90;;;;;;5031715;28;20215;-73
2022/12/01 04:57:10;;;;;;;14.65;7.70;;;2.70;99.90;;;;;;5030749;28;20202;-72
2022/12/01 04:59:37;;;;;;;18.95;9.70;;;2.70;99.90;;;;;;5031088;28;20199;-73
2022/12/01 05:02:04;;;;;;;16.88;9.07;;;2.70;99.90;;;;;;5030926;28;20202;-73
2022/12/01 05:04:32;;;;;;;12.38;8.02;;;2.70;99.90;;;;;;5031020;28;20222;-73
2022/12/01 05:06:59;;;;;;;19.38;8.40;;;2.70;99.90;;;;;;5187927;22;20206;-69
2022/12/01 05:09:26;;;;;;;16.25;9.15;;;2.70;99.90;;;;;;5050638;28;20620;-69
2022/12/01 05:11:54;;;;;;;13.02;8.07;;;2.70;99.90;;;;;;5050567;28;20213;-70
2022/12/01 05:14:21;;;;;;;15.70;7.75;;;2.70;99.90;;;;;;5051408;28;20201;-70
2022/12/01 05:16:47;;;;;;;14.60;8.68;;;2.70;99.90;;;;;;5050914;28;20206;-69
2022/12/01 05:21:58;;;;;;;11.05;6.70;;;2.70;99.90;;;;;;5050083;28;20205;-68
2022/12/01 05:24:25;;;;;;;16.85;9.75;;;2.70;99.90;;;;;;5051659;28;20208;-69
2022/12/01 05:26:51;;;;;;;14.55;8.23;;;2.70;99.90;;;;;;5052059;28;20202;-68
2022/12/01 05:29:28;;;;;;;14.40;8.40;;;2.80;99.90;;;;;;5050115;28;20220;-68
2022/12/01 05:31:55;;;;;;;15.23;8.93;;;2.70;99.90;;;;;;5049842;28;20198;-68
2022/12/01 05:34:21;;;;;;;16.17;8.48;;;2.70;99.90;;;;;;5049830;28;20221;-68
2022/12/01 05:36:48;;;;;;;18.73;9.70;;;2.70;99.90;;;;;;5049285;28;20208;-68
2022/12/01 05:39:15;;;;;;;15.00;8.70;;;2.80;99.90;;;;;;5050216;28;20198;-68
2022/12/01 05:41:42;;;;;;;14.98;6.85;;;2.70;99.90;;;;;;5049586;28;20206;-69
2022/12/01 05:44:08;;;;;;;14.38;8.27;;;2.80;99.90;;;;;;5050187;28;20210;-68
2022/12/01 05:46:36;;;;;;;15.60;7.68;;;2.80;99.90;;;;;;5050096;28;20208;-69
2022/12/01 05:49:03;;;;;;;14.68;8.70;;;2.80;99.90;;;;;;5051303;28;20226;-69
2022/12/01 05:51:30;;;;;;;15.55;8.73;;;2.90;99.90;;;;;;5051909;28;20205;-69
2022/12/01 05:53:59;;;;;;;14.38;9.18;;;2.80;99.90;;;;;;5051480;28;20198;-68
2022/12/01 05:56:25;;;;;;;15.77;8.55;;;2.80;99.90;;;;;;5051425;28;20712;-69
2022/12/01 05:58:52;;;;;;;12.40;8.27;;;2.90;99.90;;;;;;5051381;28;20202;-69
2022/12/01 06:01:19;;;;;;;14.50;8.57;;;2.90;99.90;;;;;;5050988;28;20217;-68
2022/12/01 06:03:47;;;;;;;14.18;8.00;;;2.80;99.90;;;;;;5051290;28;20213;-69
2022/12/01 06:06:14;;;;;;;14.65;8.07;;;2.80;99.90;;;;;;5051290;28;20244;-69
2022/12/01 06:08:40;;;;;;;13.68;7.57;;;2.80;99.90;;;;;;5051065;28;20578;-68
2022/12/01 06:11:07;;;;;;;14.43;7.50;;;2.80;99.90;;;;;;5050824;28;20217;-69
2022/12/01 06:13:34;;;;;;;15.38;7.93;;;2.80;99.90;;;;;;5051057;28;20212;-68
2022/12/01 06:16:02;;;;;;;13.73;8.70;;;2.70;99.90;;;;;;5050965;28;20730;-69
2022/12/01 06:18:31;;;;;;;15.63;8.18;;;2.70;99.90;;;;;;5050676;28;20209;-68
2022/12/01 06:20:59;;;;;;;15.65;8.90;;;2.70;99.90;;;;;;5050488;28;20285;-68
2022/12/01 06:23:26;;;;;;;16.52;8.60;;;2.70;99.90;;;;;;5051019;28;20230;-68
2022/12/01 06:25:53;;;;;;;15.65;8.80;;;2.70;99.90;;;;;;5050836;28;20222;-68
2022/12/01 06:28:20;;;;;;;17.20;9.10;;;2.60;99.90;;;;;;5050952;28;20560;-69
2022/12/01 06:30:46;;;;;;;16.55;9.65;;;2.60;99.90;;;;;;5050084;28;20225;-69
2022/12/01 06:33:13;;;;;;;23.52;9.82;;;2.60;99.90;;;;;;5050927;28;20209;-69
2022/12/01 06:35:40;;;;;;;15.15;9.18;;;2.60;99.90;;;;;;5050473;28;20222;-69
2022/12/01 06:38:08;;;;;;;16.02;8.95;;;2.60;99.90;;;;;;5050945;28;20198;-69
2022/12/01 06:40:35;;;;;;;14.23;8.55;;;2.60;99.90;;;;;;5050025;28;20580;-69
2022/12/01 06:43:02;;;;;;;14.80;8.70;;;2.60;99.90;;;;;;5050818;28;20201;-69
2022/12/01 06:45:30;;;;;;;13.85;8.93;;;2.70;99.90;;;;;;5050630;28;20716;-69
2022/12/01 06:47:57;;;;;;;17.85;9.20;;;2.70;99.90;;;;;;5050809;28;20217;-69
2022/12/01 06:50:24;;;;;;;14.07;8.65;;;2.80;99.90;;;;;;5049916;28;20252;-69
2022/12/01 06:52:52;;;;;;;20.08;9.98;;;2.80;99.90;;;;;;5050753;28;20224;-69
2022/12/01 06:55:20;;;;;;;20.02;9.65;;;2.70;99.90;;;;;;5050701;28;20229;-69
2022/12/01 06:57:47;;;;;;;18.55;8.48;;;2.60;99.90;;;;;;5050424;28;20197;-69
2022/12/01 07:00:15;;;;;;;19.13;9.10;;;2.60;99.90;;;;;;5050313;28;20198;-69
2022/12/01 07:02:42;;;;;;;19.00;9.65;;;2.70;99.90;;;;;;5050183;28;20224;-69
2022/12/01 07:05:09;;;;;;;16.23;8.90;;;2.60;99.90;;;;;;5050465;28;20588;-69
2022/12/01 07:07:36;;;;;;;17.60;9.80;;;2.60;99.90;;;;;;5050245;28;20221;-69
2022/12/01 07:10:04;;;;;;;20.02;10.43;;;2.60;99.90;;;;;;5050313;28;20259;-69
2022/12/01 07:12:32;;;;;;;16.48;9.55;;;2.60;99.90;;;;;;5049854;28;20202;-69
2022/12/01 07:14:59;;;;;;;16.75;9.10;;;2.70;99.90;;;;;;5050101;28;20222;-69
2022/12/01 07:17:26;;;;;;;12.43;9.35;;;2.60;99.90;;;;;;5050360;28;20292;-69
2022/12/01 07:19:52;;;;;;;17.08;9.52;;;2.70;99.90;;;;;;5050204;28;20202;-68
2022/12/01 07:22:19;;;;;;;21.40;10.02;;;2.70;99.90;;;;;;5049787;28;20212;-69
2022/12/01 07:24:46;;;;;;;14.35;8.20;;;2.70;99.90;;;;;;5049985;28;20716;-69
2022/12/01 07:27:13;;;;;;;15.05;8.68;;;2.70;99.90;;;;;;5050268;28;20208;-69
2022/12/01 07:29:41;;;;;;;16.33;8.35;;;2.70;99.90;;;;;;5052048;28;20224;-69
2022/12/01 07:32:07;;;;;;;21.08;9.85;;;2.70;99.90;;;;;;5053936;28;20212;-68
2022/12/01 07:34:34;;;;;;;17.65;9.68;;;2.70;99.90;;;;;;5053960;28;20228;-68
2022/12/01 07:37:01;;;;;;;16.48;9.50;;;2.70;99.90;;;;;;5054177;28;20206;-69
2022/12/01 07:39:27;;;;;;;18.20;9.43;;;2.70;99.90;;;;;;5053964;28;20684;-69
2022/12/01 07:41:54;;;;;;;16.05;9.15;;;2.70;99.90;;;;;;5053521;28;20197;-69
2022/12/01 07:44:21;;;;;;;18.05;10.07;;;2.70;99.90;;;;;;5054373;28;20206;-69
2022/12/01 07:46:51;;;;;;;15.50;9.18;;;2.70;99.90;;;;;;5053932;28;20212;-69
2022/12/01 07:49:18;;;;;;;17.05;10.57;;;2.70;99.90;;;;;;5053744;28;20212;-69
2022/12/01 07:51:45;;;;;;;17.05;9.90;;;2.70;99.90;;;;;;5053404;28;20257;-70
2022/12/01 07:54:13;;;;;;;16.65;9.25;;;2.70;99.90;;;;;;5053882;28;20304;-69
2022/12/01 07:56:42;;;;;;;14.95;9.20;;;2.80;99.90;;;;;;5053892;28;20601;-69
2022/12/01 07:59:09;;;;;;;11.88;7.88;;;2.70;99.90;;;;;;5053734;28;20222;-69
2022/12/01 08:01:36;;;;;;;15.07;8.07;;;2.70;99.90;;;;;;5053059;28;20198;-69
2022/12/01 08:04:07;;;;;;;16.92;10.27;;;2.70;99.90;;;;;;5053924;28;20202;-69
2022/12/01 08:06:34;;;;;;;16.63;8.68;;;2.70;99.90;;;;;;5053521;28;20205;-69
2022/12/01 08:09:01;;;;;;;15.18;9.50;;;2.80;99.90;;;;;;5049952;28;20213;-68
2022/12/01 08:11:31;;;;;;;18.33;9.73;;;2.80;99.90;;;;;;5047499;28;20221;-69
2022/12/01 08:13:58;;;;;;;16.45;8.43;;;2.80;99.90;;;;;;5051024;28;20209;-68
2022/12/01 08:16:25;;;;;;;14.40;8.38;;;2.80;99.90;;;;;;5053140;28;20226;-69
2022/12/01 08:18:53;;;;;;;17.23;8.80;;;2.80;99.90;;;;;;5052715;28;20213;-69
2022/12/01 08:21:23;;;;;;;14.00;8.80;;;2.80;99.90;;;;;;5052482;28;20198;-69
2022/12/01 08:23:54;;;;;;;21.05;10.82;;;2.80;99.90;;;;;;5052810;28;20202;-69
2022/12/01 08:26:22;;;;;;;16.33;9.10;;;2.80;99.90;;;;;;5052512;28;20230;-69
2022/12/01 08:28:50;;;;;;;15.90;9.57;;;2.80;99.90;;;;;;5052904;28;20293;-69
2022/12/01 08:31:22;;;;;;;14.85;9.38;;;2.80;99.90;;;;;;5052346;28;20232;-69
2022/12/01 08:33:50;;;;;;;15.10;9.00;;;2.80;99.90;;;;;;5052893;28;20256;-69
2022/12/01 08:36:18;;;;;;;15.18;10.65;;;2.90;99.90;;;;;;5053018;28;20248;-69
2022/12/01 08:38:48;;;;;;;15.88;9.63;;;2.80;99.90;;;;;;5052309;28;20251;-69
2022/12/01 08:41:15;;;;;;;12.52;8.55;;;2.80;99.90;;;;;;5051671;28;20204;-69
2022/12/01 08:43:43;;;;;;;15.52;8.57;;;2.80;99.90;;;;;;5052840;28;20225;-69
2022/12/01 08:46:11;;;;;;;17.08;9.73;;;2.80;99.90;;;;;;5052868;28;20592;-69
2022/12/01 08:48:38;;;;;;;14.13;8.32;;;2.80;99.90;;;;;;5052296;28;20224;-69
2022/12/01 08:51:06;;;;;;;15.15;9.45;;;2.80;99.90;;;;;;5052364;28;20253;-69
2022/12/01 08:53:34;;;;;;;17.10;8.40;;;2.80;99.90;;;;;;5052247;28;20205;-69
2022/12/01 08:56:05;;;;;;;14.52;8.82;;;2.80;99.90;;;;;;5050366;28;20229;-69
2022/12/01 08:58:32;;;;;;;13.52;8.75;;;2.80;99.90;;;;;;5050734;28;20206;-69
2022/12/01 09:01:03;;;;;;;15.98;9.35;;;2.80;99.90;;;;;;5049413;28;20576;-70
2022/12/01 09:03:30;;;;;;;15.20;9.43;;;2.80;99.90;;;;;;5048768;28;20201;-66
2022/12/01 09:06:03;;;;;;;15.43;9.55;;;2.80;99.90;;;;;;5048323;28;20237;-69
2022/12/01 09:08:34;;;;;;;14.23;9.02;;;2.80;99.90;;;;;;5049110;28;20221;-69
2022/12/01 09:11:04;;;;;;;12.88;7.50;;;2.80;99.90;;;;;;5048047;28;20225;-70
2022/12/01 09:13:31;;;;;;;28.23;9.38;;;2.70;99.90;;;;;;5048840;28;20209;-70
2022/12/01 09:16:00;;;;;;;18.02;9.30;;;2.70;99.90;;;;;;5048204;28;20717;-67
2022/12/01 09:18:26;;;;;;;19.67;9.10;;;2.80;99.90;;;;;;5048676;28;20206;-67
2022/12/01 09:20:54;;;;;;;15.32;9.43;;;2.80;99.90;;;;;;5048504;28;20570;-67
2022/12/01 09:23:22;;;;;;;16.65;9.88;;;2.80;99.90;;;;;;5048481;28;20230;-67
2022/12/01 09:25:49;;;;;;;17.85;9.35;;;2.80;99.90;;;;;;5047919;28;20329;-70
2022/12/01 09:28:18;;;;;;;19.45;8.23;;;2.90;99.90;;;;;;5048783;28;20688;-68
2022/12/01 09:30:45;;;;;;;14.55;8.43;;;2.90;99.90;;;;;;5047602;28;20225;-67
2022/12/01 09:33:12;;;;;;;12.80;8.50;;;3.00;99.90;;;;;;5048548;28;20230;-67
2022/12/01 09:35:39;;;;;;;14.57;9.50;;;3.00;99.90;;;;;;5048643;28;20225;-67
2022/12/01 09:38:06;;;;;;;15.43;8.18;;;3.00;99.90;;;;;;5048927;28;20209;-67
2022/12/01 09:40:36;;;;;;;15.90;9.48;;;3.00;99.90;;;;;;5047617;28;20198;-67
2022/12/01 09:43:06;;;;;;;14.45;8.60;;;3.00;99.90;;;;;;5048222;28;20205;-67
2022/12/01 09:45:39;;;;;;;18.40;8.02;;;3.00;99.90;;;;;;5048253;28;20267;-67
2022/12/01 09:48:18;;;;;;;16.45;8.60;;;3.00;99.90;;;;;;5048031;28;20206;-67
2022/12/01 09:50:44;;;;;;;11.70;7.40;;;3.00;99.90;;;;;;5047725;28;20228;-67
2022/12/01 09:53:17;;;;;;;16.52;8.43;;;2.90;99.90;;;;;;5046645;28;20212;-67
2022/12/01 09:55:45;;;;;;;15.43;8.23;;;2.90;99.90;;;;;;5047953;28;20218;-67
2022/12/01 09:58:17;;;;;;;13.13;7.70;;;3.00;99.90;;;;;;5048884;28;20212;-69
2022/12/01 10:00:47;;;;;;;14.38;8.27;;;3.00;99.90;;;;;;5049777;28;20202;-69
2022/12/01 10:03:25;;;;;;;14.48;8.27;;;3.00;99.90;;;;;;5050922;28;20214;-70
2022/12/01 10:05:55;;;;;;;11.27;7.28;;;3.10;99.90;;;;;;5050114;28;20750;-70
2022/12/01 10:08:25;;;;;;;13.63;8.90;;;3.10;99.90;;;;;;5050195;28;20220;-70
2022/12/01 10:10:55;;;;;;;14.65;8.93;;;3.00;99.90;;;;;;5049735;28;20225;-69
2022/12/01 10:13:25;;;;;;;11.90;7.55;;;3.00;99.90;;;;;;5050393;28;20198;-69
2022/12/01 10:16:02;;;;;;;16.30;7.65;;;3.00;99.90;;;;;;5049855;28;20716;-70
2022/12/01 10:18:40;;;;;;;15.05;8.80;;;3.00;99.90;;;;;;5050059;28;20198;-70
2022/12/01 10:21:16;;;;;;;10.85;8.30;;;3.00;99.90;;;;;;5049909;28;20197;-69
2022/12/01 10:23:56;;;;;;;19.48;10.35;;;3.10;99.90;;;;;;5049642;28;20202;-69
2022/12/01 10:26:32;;;;;;;17.25;9.57;;;3.20;99.90;;;;;;5050528;28;20225;-69
2022/12/01 10:29:10;;;;;;;15.55;8.60;;;3.20;99.90;;;;;;5049981;28;20210;-69
2022/12/01 10:31:48;;;;;;;14.13;8.10;;;3.20;99.90;;;;;;5048639;28;20232;-69
2022/12/01 10:34:17;;;;;;;15.15;8.65;;;3.10;99.90;;;;;;5050512;28;20202;-69
2022/12/01 10:36:45;;;;;;;14.23;8.40;;;3.20;99.90;;;;;;5049672;28;20209;-69
2022/12/01 10:39:18;;;;;;;13.32;9.15;;;3.20;99.90;;;;;;5049899;28;20208;-69
2022/12/01 10:41:47;;;;;;;14.48;7.40;;;3.20;99.90;;;;;;5049450;28;20355;-69
2022/12/01 10:44:15;;;;;;;18.15;9.30;;;3.20;99.90;;;;;;5049776;28;20255;-69
2022/12/01 10:46:47;;;;;;;12.80;8.07;;;3.20;99.90;;;;;;5049536;28;20582;-69
2022/12/01 10:49:16;;;;;;;11.15;7.85;;;3.30;99.90;;;;;;5050153;28;20213;-69
2022/12/01 10:51:57;;;;;;;17.40;9.10;;;3.30;99.90;;;;;;5049182;28;20221;-69
2022/12/01 10:54:32;;;;;;;13.60;7.25;;;3.40;99.90;;;;;;5049036;28;20205;-69
2022/12/01 10:56:59;;;;;;;14.60;7.97;;;3.40;99.90;;;;;;5047423;28;20209;-69
2022/12/01 10:59:32;;;;;;;13.57;8.00;;;3.40;99.90;;;;;;5049727;28;20206;-69
2022/12/01 11:02:02;;;;;;;10.57;7.63;;;3.40;99.90;;;;;;5049041;28;20568;-72
2022/12/01 11:04:43;;;;;;;14.70;8.25;;;3.40;99.90;;;;;;5049243;28;20249;-69
2022/12/01 11:07:19;;;;;;;14.70;7.50;;;3.30;99.90;;;;;;5049561;28;20217;-69
2022/12/01 11:09:55;;;;;;;16.17;8.68;;;3.40;99.90;;;;;;5049112;28;20220;-69
2022/12/01 11:12:23;;;;;;;15.23;9.30;;;3.50;99.90;;;;;;5047490;28;20228;-69
2022/12/01 11:14:54;;;;;;;17.05;8.43;;;3.60;99.90;;;;;;5048070;28;20528;-69
2022/12/01 11:17:31;;;;;;;13.02;7.82;;;3.60;99.90;;;;;;5048960;28;20217;-70
2022/12/01 11:19:58;;;;;;;14.82;8.55;;;3.60;99.90;;;;;;5048584;28;20751;-70
2022/12/01 11:22:29;;;;;;;19.15;9.27;;;3.60;99.90;;;;;;5047669;28;20206;-69
2022/12/01 11:25:01;;;;;;;13.82;8.95;;;3.60;99.90;;;;;;5048758;28;20244;-68
2022/12/01 11:27:32;;;;;;;20.15;9.35;;;3.70;99.90;;;;;;5048767;28;20614;-69
2022/12/01 11:30:03;;;;;;;13.13;8.43;;;3.70;99.90;;;;;;5048296;28;20201;-69
2022/12/01 11:32:34;;;;;;;12.48;8.38;;;3.80;99.90;;;;;;5047886;28;20786;-69
2022/12/01 11:35:03;;;;;;;16.00;9.52;;;3.80;99.90;;;;;;5048706;28;20222;-69
2022/12/01 11:37:35;;;;;;;17.10;8.68;;;3.80;99.90;;;;;;5048418;28;20212;-69
2022/12/01 11:40:09;;;;;;;16.23;9.40;;;3.80;99.90;;;;;;5048730;28;20692;-69
2022/12/01 11:42:36;;;;;;;15.43;8.65;;;3.80;99.90;;;;;;5048338;28;20210;-70
2022/12/01 11:45:07;;;;;;;11.98;7.88;;;3.80;99.90;;;;;;5047786;28;20230;-69
2022/12/01 11:47:35;;;;;;;11.93;7.53;;;3.80;99.90;;;;;;5048902;28;20224;-69
2022/12/01 11:50:22;;;;;;;13.93;8.90;;;3.80;99.90;;;;;;5048510;28;20209;-69
2022/12/01 11:52:49;;;;;;;15.48;8.45;;;3.80;99.90;;;;;;5048037;28;20202;-69
2022/12/01 11:55:21;;;;;;;12.40;8.18;;;3.70;99.90;;;;;;5048622;28;20233;-69
2022/12/01 11:57:50;;;;;;;12.80;8.48;;;3.70;99.90;;;;;;5048218;28;20292;-69
2022/12/01 12:00:20;;;;;;;17.70;10.45;;;3.70;99.90;;;;;;5048011;28;20198;-69
2022/12/01 12:03:00;;;;;;;12.63;7.57;;;3.80;99.90;;;;;;5049440;28;20209;-69
2022/12/01 12:05:45;;;;;;;15.02;8.38;;;3.80;99.90;;;;;;5048852;28;20231;-69
2022/12/01 12:08:17;;;;;;;12.65;8.23;;;3.80;99.90;;;;;;5048505;28;20375;-69
2022/12/01 12:10:53;;;;;;;17.80;9.18;;;3.80;99.90;;;;;;5047616;28;20228;-69
2022/12/01 12:13:40;;;;;;;14.57;8.00;;;3.80;99.90;;;;;;5048630;28;20213;-69
2022/12/01 12:16:16;;;;;;;16.83;8.07;;;3.80;99.90;;;;;;5050610;28;20225;-69
2022/12/01 12:18:57;;;;;;;16.52;8.18;;;3.80;99.90;;;;;;5051941;28;20215;-69
2022/12/01 12:21:32;;;;;;;12.60;7.97;;;3.90;99.90;;;;;;5051473;28;20509;-69
2022/12/01 12:24:28;;;;;;;33.28;17.17;;;3.90;99.90;;;;;;5052066;28;20201;-69
2022/12/01 12:27:04;;;;;;;50.47;23.15;;;3.90;99.90;;;;;;5034688;28;20212;-69
2022/12/01 12:29:48;;;;;;;29.15;13.20;;;3.90;99.90;;;;;;5051449;28;20219;-69
2022/12/01 12:32:32;;;;;;;14.55;8.32;;;3.90;99.90;;;;;;5051183;28;20217;-69
2022/12/01 12:35:09;;;;;;;18.40;10.02;;;3.90;99.90;;;;;;5051230;28;20240;-69
2022/12/01 12:37:44;;;;;;;47.33;17.70;;;3.90;99.90;;;;;;5051257;28;20620;-69
2022/12/01 12:40:38;;;;;;;24.60;13.18;;;3.90;99.90;;;;;;5051627;28;20216;-69
2022/12/01 12:43:21;;;;;;;23.08;9.50;;;4.00;99.90;;;;;;5048502;28;20523;-70
2022/12/01 12:45:59;;;;;;;18.08;10.75;;;4.00;99.90;;;;;;5051234;28;20225;-69
2022/12/01 12:48:42;;;;;;;14.15;7.95;;;3.90;99.90;;;;;;5051310;28;20205;-69
2022/12/01 12:51:15;;;;;;;14.98;9.15;;;4.00;99.90;;;;;;5050474;28;20230;-69
2022/12/01 12:53:47;;;;;;;18.70;10.73;;;4.00;99.90;;;;;;5051072;28;20213;-69
2022/12/01 12:56:17;;;;;;;20.23;10.75;;;4.10;99.90;;;;;;5051289;28;20606;-68
2022/12/01 12:58:53;;;;;;;25.63;12.80;;;4.00;99.90;;;;;;5050711;28;20228;-69
2022/12/01 13:01:25;;;;;;;18.45;9.45;;;4.00;99.90;;;;;;5050599;28;20827;-69
2022/12/01 13:03:55;;;;;;;22.65;10.82;;;4.00;99.90;;;;;;5050955;28;20258;-69